createdAt,value
2018-05-12T00:01:21.819Z,99.90
2018-05-12T00:03:50.185Z,99.90
2018-05-12T00:06:18.538Z,99.90
2018-05-12T00:08:47.114Z,99.90
2018-05-12T00:11:15.466Z,99.90
2018-05-12T00:13:44.612Z,99.90
2018-05-12T00:16:13.097Z,99.90
2018-05-12T00:18:41.481Z,99.90
2018-05-12T00:21:10.035Z,99.90
2018-05-12T00:23:39.403Z,99.90
2018-05-12T00:26:07.927Z,99.90
2018-05-12T00:28:36.322Z,99.90
2018-05-12T00:31:04.688Z,99.90
2018-05-12T00:33:33.058Z,99.90
2018-05-12T00:36:01.419Z,99.90
2018-05-12T00:38:30.040Z,99.90
2018-05-12T00:40:58.395Z,99.90
2018-05-12T00:43:26.834Z,99.90
2018-05-12T00:45:55.197Z,99.90
2018-05-12T00:48:23.629Z,99.90
2018-05-12T00:50:52.143Z,99.90
2018-05-12T00:53:20.490Z,99.90
2018-05-12T00:55:48.905Z,99.90
2018-05-12T00:58:17.982Z,99.90
2018-05-12T01:00:46.502Z,99.90
2018-05-12T01:03:14.878Z,99.90
2018-05-12T01:05:43.229Z,99.90
2018-05-12T01:08:11.608Z,99.90
2018-05-12T01:10:39.947Z,99.90
2018-05-12T01:13:09.146Z,99.90
2018-05-12T01:15:37.473Z,99.90
2018-05-12T01:18:07.051Z,99.90
2018-05-12T01:20:35.451Z,99.90
2018-05-12T01:23:03.793Z,99.90
2018-05-12T01:25:32.927Z,99.90
2018-05-12T01:28:01.275Z,99.90
2018-05-12T01:30:29.638Z,99.90
2018-05-12T01:32:58.770Z,99.90
2018-05-12T01:35:27.115Z,99.90
2018-05-12T01:37:55.752Z,99.90
2018-05-12T01:40:24.132Z,99.90
2018-05-12T01:42:52.870Z,99.90
2018-05-12T01:45:22.422Z,99.90
2018-05-12T01:47:50.886Z,99.90
2018-05-12T01:50:19.264Z,99.90
2018-05-12T01:52:47.631Z,99.90
2018-05-12T01:55:15.973Z,99.90
2018-05-12T01:57:44.510Z,99.90
2018-05-12T02:00:12.871Z,99.90
2018-05-12T02:02:41.230Z,99.90
2018-05-12T02:05:09.641Z,99.90
2018-05-12T02:07:38.027Z,99.90
2018-05-12T02:10:06.367Z,99.90
2018-05-12T02:12:34.722Z,99.90
2018-05-12T02:15:03.150Z,99.90
2018-05-12T02:17:31.518Z,99.90
2018-05-12T02:20:00.678Z,99.90
2018-05-12T02:22:29.347Z,99.90
2018-05-12T02:24:57.752Z,99.90
2018-05-12T02:27:26.356Z,99.90
2018-05-12T02:29:55.485Z,99.90
2018-05-12T02:32:23.837Z,99.90
2018-05-12T02:34:52.994Z,99.90
2018-05-12T02:37:21.354Z,99.90
2018-05-12T02:39:51.258Z,99.90
2018-05-12T02:42:19.801Z,99.90
2018-05-12T02:44:49.114Z,99.90
2018-05-12T02:47:18.219Z,99.90
2018-05-12T02:49:46.610Z,99.90
2018-05-12T02:52:14.973Z,99.90
2018-05-12T02:54:44.124Z,99.90
2018-05-12T02:57:13.292Z,99.90
2018-05-12T02:59:41.622Z,99.90
2018-05-12T03:02:10.002Z,99.90
2018-05-12T03:04:38.382Z,99.90
2018-05-12T03:07:06.882Z,99.90
2018-05-12T03:09:35.985Z,99.90
2018-05-12T03:12:05.122Z,99.90
2018-05-12T03:14:33.519Z,99.90
2018-05-12T03:17:02.037Z,99.90
2018-05-12T03:19:30.365Z,99.90
2018-05-12T03:21:58.730Z,99.90
2018-05-12T03:24:27.112Z,99.90
2018-05-12T03:26:55.451Z,99.90
2018-05-12T03:29:24.583Z,99.90
2018-05-12T03:31:53.020Z,99.90
2018-05-12T03:34:21.405Z,99.90
2018-05-12T03:36:50.504Z,99.90
2018-05-12T03:39:18.862Z,99.90
2018-05-12T03:41:47.216Z,99.90
2018-05-12T03:44:15.574Z,99.90
2018-05-12T03:46:44.170Z,99.90
2018-05-12T03:49:12.518Z,99.90
2018-05-12T03:51:40.872Z,99.90
2018-05-12T03:54:09.252Z,99.90
2018-05-12T03:56:37.627Z,99.90
2018-05-12T03:59:06.053Z,99.90
2018-05-12T04:01:34.410Z,99.90
2018-05-12T04:04:03.692Z,99.90
2018-05-12T04:06:44.073Z,99.90
2018-05-12T04:09:25.082Z,99.90
2018-05-12T04:12:05.541Z,99.90
2018-05-12T04:14:33.910Z,99.90
2018-05-12T04:17:02.298Z,99.90
2018-05-12T04:19:30.650Z,99.90
2018-05-12T04:21:59.060Z,99.90
2018-05-12T04:24:27.457Z,99.90
2018-05-12T04:26:55.818Z,99.90
2018-05-12T04:29:24.156Z,99.90
2018-05-12T04:31:53.294Z,99.90
2018-05-12T04:34:21.667Z,99.90
2018-05-12T04:36:50.051Z,99.90
2018-05-12T04:39:18.422Z,99.90
2018-05-12T04:41:46.781Z,99.90
2018-05-12T04:44:15.895Z,99.90
2018-05-12T04:46:44.253Z,99.90
2018-05-12T04:49:12.595Z,99.90
2018-05-12T04:51:41.043Z,99.90
2018-05-12T04:54:09.523Z,99.90
2018-05-12T04:56:38.112Z,99.90
2018-05-12T04:59:06.491Z,99.90
2018-05-12T05:01:34.871Z,99.90
2018-05-12T05:04:03.245Z,99.90
2018-05-12T05:06:31.601Z,99.90
2018-05-12T05:09:00.917Z,99.90
2018-05-12T05:11:29.258Z,99.90
2018-05-12T05:13:58.411Z,99.90
2018-05-12T05:16:26.803Z,99.90
2018-05-12T05:18:55.268Z,99.90
2018-05-12T05:21:23.608Z,99.90
2018-05-12T05:23:52.771Z,99.90
2018-05-12T05:26:21.133Z,99.90
2018-05-12T05:28:49.505Z,99.90
2018-05-12T05:31:17.869Z,99.90
2018-05-12T05:33:46.261Z,99.90
2018-05-12T05:36:15.044Z,99.90
2018-05-12T05:38:43.435Z,99.90
2018-05-12T05:41:11.804Z,99.90
2018-05-12T05:43:40.362Z,99.90
2018-05-12T05:46:08.715Z,99.90
2018-05-12T05:48:37.059Z,99.90
2018-05-12T05:51:05.431Z,99.90
2018-05-12T05:53:33.777Z,99.90
2018-05-12T05:56:02.540Z,99.90
2018-05-12T05:58:30.916Z,99.90
2018-05-12T06:00:59.348Z,99.90
2018-05-12T06:03:27.698Z,99.90
2018-05-12T06:05:56.821Z,99.90
2018-05-12T06:08:25.276Z,99.90
2018-05-12T06:10:54.378Z,99.90
2018-05-12T06:13:23.347Z,99.90
2018-05-12T06:15:51.686Z,99.90
2018-05-12T06:18:20.048Z,99.90
2018-05-12T06:20:48.437Z,99.90
2018-05-12T06:23:16.795Z,99.90
2018-05-12T06:25:45.391Z,99.90
2018-05-12T06:28:13.780Z,99.90
2018-05-12T06:30:42.165Z,99.90
2018-05-12T06:33:10.529Z,99.90
2018-05-12T06:35:39.022Z,99.90
2018-05-12T06:38:07.461Z,99.90
2018-05-12T06:40:36.609Z,99.90
2018-05-12T06:43:05.036Z,99.90
2018-05-12T06:45:34.173Z,99.90
2018-05-12T06:48:02.557Z,99.90
2018-05-12T06:50:31.026Z,99.90
2018-05-12T06:52:59.369Z,99.90
2018-05-12T06:55:28.510Z,99.90
2018-05-12T06:57:56.889Z,99.90
2018-05-12T07:00:25.275Z,99.90
2018-05-12T07:02:53.642Z,99.90
2018-05-12T07:05:22.043Z,99.90
2018-05-12T07:07:50.470Z,99.90
2018-05-12T07:10:18.995Z,99.90
2018-05-12T07:12:47.357Z,99.90
2018-05-12T07:15:15.765Z,99.90
2018-05-12T07:17:44.110Z,99.90
2018-05-12T07:20:12.624Z,99.90
2018-05-12T07:22:40.963Z,99.90
2018-05-12T07:25:09.347Z,99.90
2018-05-12T07:27:37.702Z,99.90
2018-05-12T07:30:06.079Z,99.90
2018-05-12T07:32:34.436Z,99.90
2018-05-12T07:35:02.802Z,99.90
2018-05-12T07:37:31.325Z,99.90
2018-05-12T07:39:59.814Z,99.90
2018-05-12T07:42:28.117Z,99.90
2018-05-12T07:44:56.488Z,99.90
2018-05-12T07:47:25.105Z,99.90
2018-05-12T07:49:53.526Z,99.90
2018-05-12T07:52:21.946Z,99.90
2018-05-12T07:54:50.322Z,99.90
2018-05-12T07:57:18.662Z,99.90
2018-05-12T07:59:47.795Z,99.90
2018-05-12T08:02:16.201Z,99.90
2018-05-12T08:04:44.575Z,99.90
2018-05-12T08:07:12.953Z,99.90
2018-05-12T08:09:41.296Z,99.80
2018-05-12T08:12:10.422Z,99.80
2018-05-12T08:14:38.990Z,99.70
2018-05-12T08:17:07.579Z,99.80
2018-05-12T08:19:36.538Z,99.60
2018-05-12T08:22:05.806Z,99.90
2018-05-12T08:24:34.141Z,99.90
2018-05-12T08:27:02.535Z,99.90
2018-05-12T08:29:31.022Z,99.90
2018-05-12T08:31:59.390Z,99.90
2018-05-12T08:34:27.743Z,99.90
2018-05-12T08:36:56.863Z,99.70
2018-05-12T08:39:25.294Z,99.70
2018-05-12T08:41:53.621Z,99.50
2018-05-12T08:44:21.972Z,99.40
2018-05-12T08:46:51.093Z,99.50
2018-05-12T08:49:19.492Z,99.50
2018-05-12T08:51:47.867Z,99.60
2018-05-12T08:54:16.372Z,99.30
2018-05-12T08:56:44.729Z,99.20
2018-05-12T08:59:13.111Z,98.60
2018-05-12T09:01:41.587Z,98.60
2018-05-12T09:04:09.966Z,99.00
2018-05-12T09:06:38.311Z,99.40
2018-05-12T09:09:06.658Z,99.10
2018-05-12T09:11:35.068Z,98.70
2018-05-12T09:14:03.416Z,98.10
2018-05-12T09:16:31.771Z,97.40
2018-05-12T09:19:00.152Z,96.00
2018-05-12T09:21:28.510Z,95.70
2018-05-12T09:23:56.866Z,95.40
2018-05-12T09:26:26.032Z,94.60
2018-05-12T09:28:55.202Z,93.80
2018-05-12T09:31:23.559Z,93.70
2018-05-12T09:33:52.210Z,93.30
2018-05-12T09:36:20.576Z,93.10
2018-05-12T09:38:49.136Z,92.90
2018-05-12T09:41:17.469Z,91.70
2018-05-12T09:43:46.589Z,91.50
2018-05-12T09:46:15.070Z,91.50
2018-05-12T09:48:43.365Z,91.00
2018-05-12T09:51:12.056Z,90.90
2018-05-12T09:53:40.431Z,90.60
2018-05-12T09:56:08.782Z,90.70
2018-05-12T09:58:37.276Z,89.20
2018-05-12T10:01:05.637Z,86.60
2018-05-12T10:03:34.774Z,87.40
2018-05-12T10:06:03.123Z,87.40
2018-05-12T10:08:31.604Z,86.90
2018-05-12T10:10:59.964Z,87.80
2018-05-12T10:13:29.091Z,86.90
2018-05-12T10:15:57.529Z,86.90
2018-05-12T10:18:26.024Z,86.00
2018-05-12T10:20:54.445Z,84.60
2018-05-12T10:23:22.815Z,82.20
2018-05-12T10:25:51.943Z,80.40
2018-05-12T10:28:20.290Z,80.40
2018-05-12T10:30:48.645Z,80.80
2018-05-12T10:33:17.762Z,81.40
2018-05-12T10:35:46.165Z,81.40
2018-05-12T10:38:14.541Z,79.00
2018-05-12T10:40:43.167Z,77.40
2018-05-12T10:43:11.477Z,77.00
2018-05-12T10:45:39.969Z,78.20
2018-05-12T10:48:08.313Z,79.80
2018-05-12T10:50:36.746Z,79.70
2018-05-12T10:53:05.217Z,80.10
2018-05-12T10:55:33.567Z,81.70
2018-05-12T10:58:02.683Z,83.20
2018-05-12T11:00:31.037Z,83.20
2018-05-12T11:03:00.177Z,87.10
2018-05-12T11:05:28.535Z,87.00
2018-05-12T11:07:56.923Z,87.00
2018-05-12T11:10:25.409Z,86.40
2018-05-12T11:12:53.884Z,86.80
2018-05-12T11:15:22.273Z,85.60
2018-05-12T11:17:50.766Z,86.80
2018-05-12T11:20:19.248Z,87.90
2018-05-12T11:22:47.834Z,86.80
2018-05-12T11:25:16.194Z,87.70
2018-05-12T11:27:45.019Z,87.30
2018-05-12T11:30:13.482Z,88.70
2018-05-12T11:32:41.833Z,88.70
2018-05-12T11:35:10.370Z,88.50
2018-05-12T11:37:38.722Z,87.90
2018-05-12T11:40:07.087Z,86.40
2018-05-12T11:42:36.145Z,85.50
2018-05-12T11:45:05.272Z,83.30
2018-05-12T11:47:34.547Z,83.10
2018-05-12T11:50:03.671Z,83.60
2018-05-12T11:52:32.068Z,83.40
2018-05-12T11:55:00.565Z,77.80
2018-05-12T11:57:28.907Z,77.50
2018-05-12T11:59:57.415Z,75.90
2018-05-12T12:02:25.784Z,77.60
2018-05-12T12:04:54.270Z,77.30
2018-05-12T12:07:22.643Z,76.20
2018-05-12T12:09:51.032Z,75.60
2018-05-12T12:12:19.402Z,71.90
2018-05-12T12:14:47.864Z,72.60
2018-05-12T12:17:16.240Z,72.50
2018-05-12T12:19:45.358Z,69.20
2018-05-12T12:22:13.944Z,69.20
2018-05-12T12:24:42.310Z,69.10
2018-05-12T12:27:10.665Z,68.50
2018-05-12T12:29:39.770Z,66.70
2018-05-12T12:32:08.226Z,66.30
2018-05-12T12:34:36.582Z,64.40
2018-05-12T12:37:04.984Z,64.10
2018-05-12T12:39:33.435Z,65.60
2018-05-12T12:42:01.811Z,64.50
2018-05-12T12:44:30.167Z,63.10
2018-05-12T12:46:58.530Z,62.20
2018-05-12T12:49:26.899Z,61.70
2018-05-12T12:51:56.011Z,60.00
2018-05-12T12:54:24.426Z,60.00
2018-05-12T12:56:52.770Z,60.40
2018-05-12T12:59:21.168Z,60.10
2018-05-12T13:01:49.570Z,59.10
2018-05-12T13:04:18.006Z,58.50
2018-05-12T13:06:46.371Z,59.10
2018-05-12T13:09:15.499Z,60.10
2018-05-12T13:11:43.893Z,60.10
2018-05-12T13:14:12.262Z,61.20
2018-05-12T13:16:40.719Z,62.60
2018-05-12T13:19:09.124Z,61.40
2018-05-12T13:21:37.703Z,61.70
2018-05-12T13:24:06.087Z,61.00
2018-05-12T13:26:34.439Z,60.10
2018-05-12T13:29:03.027Z,59.60
2018-05-12T13:31:31.648Z,60.90
2018-05-12T13:34:00.002Z,60.20
2018-05-12T13:36:28.385Z,61.10
2018-05-12T13:38:56.766Z,59.30
2018-05-12T13:41:25.119Z,58.20
2018-05-12T13:43:54.338Z,61.80
2018-05-12T13:46:22.706Z,61.70
2018-05-12T13:48:51.121Z,63.00
2018-05-12T13:51:19.505Z,65.10
2018-05-12T13:53:48.014Z,63.50
2018-05-12T13:56:16.354Z,63.80
2018-05-12T13:58:44.721Z,62.60
2018-05-12T14:01:13.218Z,63.30
2018-05-12T14:03:41.576Z,64.00
2018-05-12T14:06:09.972Z,62.60
2018-05-12T14:08:38.360Z,63.60
2018-05-12T14:11:06.779Z,65.00
2018-05-12T14:13:35.176Z,65.50
2018-05-12T14:16:04.297Z,64.20
2018-05-12T14:18:33.279Z,64.20
2018-05-12T14:21:01.628Z,64.50
2018-05-12T14:23:30.000Z,63.60
2018-05-12T14:25:58.360Z,62.40
2018-05-12T14:28:26.818Z,63.30
2018-05-12T14:30:55.174Z,64.70
2018-05-12T14:33:23.549Z,64.10
2018-05-12T14:35:53.000Z,66.90
2018-05-12T14:38:21.395Z,66.90
2018-05-12T14:40:49.732Z,67.80
2018-05-12T14:43:18.108Z,69.50
2018-05-12T14:45:46.501Z,70.60
2018-05-12T14:48:14.865Z,71.40
2018-05-12T14:50:44.112Z,72.50
2018-05-12T14:53:12.458Z,71.30
2018-05-12T14:55:40.829Z,72.00
2018-05-12T14:58:09.183Z,72.40
2018-05-12T15:00:37.536Z,69.40
2018-05-12T15:03:06.066Z,69.00
2018-05-12T15:05:34.446Z,66.10
2018-05-12T15:08:02.948Z,66.30
2018-05-12T15:10:31.320Z,66.30
2018-05-12T15:12:59.677Z,65.60
2018-05-12T15:15:28.107Z,65.50
2018-05-12T15:17:56.451Z,65.30
2018-05-12T15:20:24.817Z,64.70
2018-05-12T15:22:59.211Z,64.30
2018-05-12T15:25:27.566Z,64.20
2018-05-12T15:27:55.910Z,63.00
2018-05-12T15:30:24.290Z,62.90
2018-05-12T15:32:52.659Z,63.30
2018-05-12T15:35:21.043Z,64.70
2018-05-12T15:37:49.406Z,65.50
2018-05-12T15:40:17.810Z,65.70
2018-05-12T15:42:46.198Z,66.80
2018-05-12T15:45:15.455Z,68.10
2018-05-12T15:47:44.692Z,69.20
2018-05-12T15:50:13.058Z,69.20
2018-05-12T15:52:41.441Z,70.30
2018-05-12T15:55:09.828Z,71.70
2018-05-12T15:57:38.257Z,70.70
2018-05-12T16:00:07.385Z,69.40
2018-05-12T16:02:35.758Z,69.20
2018-05-12T16:05:04.269Z,68.20
2018-05-12T16:07:32.663Z,67.30
2018-05-12T16:10:01.031Z,67.70
2018-05-12T16:12:29.412Z,67.00
2018-05-12T16:14:57.754Z,64.80
2018-05-12T16:20:01.714Z,61.90
2018-05-12T16:22:30.191Z,61.90
2018-05-12T16:24:58.553Z,60.60
2018-05-12T16:27:26.899Z,60.10
2018-05-12T16:29:55.329Z,59.60
2018-05-12T16:32:23.674Z,58.40
2018-05-12T16:34:53.121Z,58.00
2018-05-12T16:37:21.612Z,58.00
2018-05-12T16:39:50.033Z,57.90
2018-05-12T16:42:19.250Z,57.50
2018-05-12T16:44:47.510Z,57.50
2018-05-12T16:47:16.651Z,59.00
2018-05-12T16:49:45.014Z,58.90
2018-05-12T16:52:13.430Z,59.40
2018-05-12T16:54:41.901Z,60.50
2018-05-12T16:57:10.264Z,62.00
2018-05-12T16:59:38.624Z,64.10
2018-05-12T17:02:07.739Z,66.80
2018-05-12T17:04:36.117Z,66.70
2018-05-12T17:07:04.465Z,68.40
2018-05-12T17:09:33.611Z,70.90
2018-05-12T17:12:01.975Z,70.80
2018-05-12T17:14:30.332Z,72.70
2018-05-12T17:16:58.680Z,74.00
2018-05-12T17:19:27.120Z,75.30
2018-05-12T17:21:55.456Z,75.90
2018-05-12T17:24:24.779Z,77.80
2018-05-12T17:26:53.118Z,77.70
2018-05-12T17:29:21.482Z,78.10
2018-05-12T17:31:49.835Z,78.40
2018-05-12T17:34:18.224Z,78.90
2018-05-12T17:36:47.091Z,79.40
2018-05-12T17:39:15.465Z,80.30
2018-05-12T17:41:43.873Z,80.80
2018-05-12T17:44:12.257Z,81.20
2018-05-12T17:46:40.640Z,82.10
2018-05-12T17:49:09.153Z,81.80
2018-05-12T17:51:37.519Z,81.80
2018-05-12T17:54:05.874Z,82.20
2018-05-12T17:56:34.238Z,82.90
2018-05-12T17:59:02.641Z,83.40
2018-05-12T18:01:31.083Z,83.80
2018-05-12T18:03:59.507Z,84.00
2018-05-12T18:06:28.572Z,85.10
2018-05-12T18:08:56.926Z,84.90
2018-05-12T18:11:25.302Z,85.30
2018-05-12T18:13:54.546Z,86.30
2018-05-12T18:16:23.027Z,86.10
2018-05-12T18:18:51.390Z,86.40
2018-05-12T18:21:19.771Z,86.90
2018-05-12T18:23:48.152Z,87.40
2018-05-12T18:26:16.542Z,87.70
2018-05-12T18:28:44.890Z,88.40
2018-05-12T18:31:13.407Z,89.00
2018-05-12T18:33:41.754Z,89.90
2018-05-12T18:36:10.120Z,90.10
2018-05-12T18:38:39.291Z,90.70
2018-05-12T18:41:07.607Z,90.70
2018-05-12T18:43:36.004Z,90.80
2018-05-12T18:46:04.356Z,90.90
2018-05-12T18:48:32.701Z,91.10
2018-05-12T18:51:01.167Z,91.30
2018-05-12T18:53:29.521Z,91.50
2018-05-12T18:55:57.977Z,91.80
2018-05-12T18:58:27.099Z,92.30
2018-05-12T19:00:55.465Z,92.30
2018-05-12T19:03:23.854Z,92.50
2018-05-12T19:05:52.345Z,92.70
2018-05-12T19:08:21.002Z,92.90
2018-05-12T19:10:49.306Z,93.30
2018-05-12T19:13:17.657Z,93.50
2018-05-12T19:15:46.023Z,93.50
2018-05-12T19:18:15.176Z,94.40
2018-05-12T19:20:43.527Z,94.00
2018-05-12T19:23:11.887Z,94.20
2018-05-12T19:25:41.062Z,94.60
2018-05-12T19:28:09.469Z,94.60
2018-05-12T19:30:38.629Z,95.10
2018-05-12T19:33:07.123Z,95.10
2018-05-12T19:35:35.545Z,95.40
2018-05-12T19:38:03.945Z,95.60
2018-05-12T19:40:32.327Z,95.70
2018-05-12T19:43:00.822Z,95.80
2018-05-12T19:45:29.180Z,96.00
2018-05-12T19:47:57.549Z,96.20
2018-05-12T19:50:25.950Z,96.20
2018-05-12T19:52:54.417Z,96.30
2018-05-12T19:55:22.788Z,96.50
2018-05-12T19:57:51.151Z,96.60
2018-05-12T20:00:19.497Z,96.70
2018-05-12T20:02:48.747Z,96.90
2018-05-12T20:05:17.117Z,96.80
2018-05-12T20:07:45.528Z,97.30
2018-05-12T20:10:13.883Z,97.30
2018-05-12T20:12:42.314Z,97.30
2018-05-12T20:15:10.752Z,97.40
2018-05-12T20:17:39.275Z,97.40
2018-05-12T20:20:07.732Z,97.50
2018-05-12T20:22:36.164Z,97.60
2018-05-12T20:25:04.586Z,97.80
2018-05-12T20:27:32.972Z,98.00
2018-05-12T20:30:01.540Z,97.90
2018-05-12T20:32:29.965Z,98.10
2018-05-12T20:34:58.335Z,98.00
2018-05-12T20:37:26.783Z,98.00
2018-05-12T20:39:55.045Z,98.20
2018-05-12T20:42:23.403Z,98.20
2018-05-12T20:44:51.914Z,98.30
2018-05-12T20:47:20.545Z,98.50
2018-05-12T20:49:48.887Z,98.70
2018-05-12T20:52:17.242Z,98.70
2018-05-12T20:54:45.604Z,98.90
2018-05-12T20:57:14.725Z,99.30
2018-05-12T20:59:43.101Z,99.20
2018-05-12T21:02:11.451Z,99.30
2018-05-12T21:04:40.570Z,99.50
2018-05-12T21:07:08.949Z,99.50
2018-05-12T21:09:37.299Z,99.60
2018-05-12T21:12:05.732Z,99.90
2018-05-12T21:14:34.235Z,99.90
2018-05-12T21:17:02.606Z,99.90
2018-05-12T21:19:30.966Z,99.90
2018-05-12T21:21:59.319Z,99.90
2018-05-12T21:24:27.731Z,99.90
2018-05-12T21:26:56.079Z,99.90
2018-05-12T21:29:25.321Z,99.90
2018-05-12T21:31:53.547Z,99.90
2018-05-12T21:34:22.672Z,99.90
2018-05-12T21:36:51.016Z,99.90
2018-05-12T21:39:20.871Z,99.90
2018-05-12T21:41:49.255Z,99.90
2018-05-12T21:44:17.660Z,99.90
2018-05-12T21:46:46.008Z,99.90
2018-05-12T21:49:14.410Z,99.90
2018-05-12T21:51:42.794Z,99.90
2018-05-12T21:54:11.194Z,99.90
2018-05-12T21:56:39.627Z,99.90
2018-05-12T21:59:08.621Z,99.90
2018-05-12T22:01:36.974Z,99.90
2018-05-12T22:04:05.330Z,99.90
2018-05-12T22:06:33.685Z,99.90
2018-05-12T22:09:02.022Z,99.90
2018-05-12T22:11:30.505Z,99.90
2018-05-12T22:13:58.898Z,99.90
2018-05-12T22:16:27.250Z,99.90
2018-05-12T22:18:55.612Z,99.90
2018-05-12T22:21:24.758Z,99.90
2018-05-12T22:23:53.097Z,99.90
2018-05-12T22:26:22.228Z,99.90
2018-05-12T22:28:50.579Z,99.90
2018-05-12T22:31:18.958Z,99.90
2018-05-12T22:33:49.963Z,99.90
2018-05-12T22:36:18.321Z,99.90
2018-05-12T22:38:46.676Z,99.90
2018-05-12T22:41:15.026Z,99.90
2018-05-12T22:43:44.138Z,99.90
2018-05-12T22:46:12.501Z,99.90
2018-05-12T22:48:41.612Z,99.90
2018-05-12T22:51:10.075Z,99.90
2018-05-12T22:53:39.186Z,99.90
2018-05-12T22:56:08.314Z,99.90
2018-05-12T22:58:36.691Z,99.90
2018-05-12T23:01:05.040Z,99.90
2018-05-12T23:03:34.220Z,99.90
2018-05-12T23:06:02.587Z,99.90
2018-05-12T23:08:30.962Z,99.90
2018-05-12T23:10:59.324Z,99.90
2018-05-12T23:13:27.657Z,99.90
2018-05-12T23:15:56.061Z,99.90
2018-05-12T23:18:24.486Z,99.90
2018-05-12T23:20:52.960Z,99.90
2018-05-12T23:23:21.311Z,99.90
2018-05-12T23:25:49.839Z,99.90
2018-05-12T23:28:18.202Z,99.90
2018-05-12T23:30:46.649Z,99.90
2018-05-12T23:33:14.998Z,99.90
2018-05-12T23:35:43.470Z,99.90
2018-05-12T23:38:12.611Z,99.90
2018-05-12T23:40:41.139Z,99.90
2018-05-12T23:43:09.490Z,99.90
2018-05-12T23:45:37.946Z,99.90
2018-05-12T23:48:06.307Z,99.90
2018-05-12T23:50:35.239Z,99.90
2018-05-12T23:53:03.694Z,99.90
2018-05-12T23:55:32.110Z,99.90
2018-05-12T23:58:00.557Z,99.90
